createdAt,value
2017-11-23T00:01:42.329Z,91.90
2017-11-23T00:04:09.883Z,91.90
2017-11-23T00:06:37.492Z,91.80
2017-11-23T00:09:05.111Z,91.40
2017-11-23T00:11:34.048Z,92.20
2017-11-23T00:14:01.741Z,91.90
2017-11-23T00:16:29.390Z,91.80
2017-11-23T00:18:56.988Z,91.80
2017-11-23T00:21:25.387Z,92.20
2017-11-23T00:23:53.039Z,91.80
2017-11-23T00:26:21.634Z,91.80
2017-11-23T00:28:49.210Z,91.80
2017-11-23T00:31:16.839Z,91.70
2017-11-23T00:33:45.200Z,91.70
2017-11-23T00:36:12.821Z,91.70
2017-11-23T00:38:40.445Z,91.50
2017-11-23T00:41:08.084Z,91.40
2017-11-23T00:43:35.736Z,91.50
2017-11-23T00:46:03.940Z,91.40
2017-11-23T00:48:32.320Z,91.60
2017-11-23T00:50:59.915Z,91.60
2017-11-23T00:53:28.438Z,91.80
2017-11-23T00:55:56.587Z,92.00
2017-11-23T00:58:24.173Z,91.90
2017-11-23T01:00:51.832Z,92.10
2017-11-23T01:03:20.378Z,91.80
2017-11-23T01:05:48.000Z,91.90
2017-11-23T01:08:16.324Z,92.10
2017-11-23T01:10:43.987Z,92.00
2017-11-23T01:13:11.592Z,92.00
2017-11-23T01:15:39.974Z,91.90
2017-11-23T01:18:08.336Z,91.90
2017-11-23T01:20:35.932Z,91.90
2017-11-23T01:23:04.486Z,92.00
2017-11-23T01:25:32.897Z,92.00
2017-11-23T01:28:01.568Z,92.00
2017-11-23T01:30:29.193Z,92.10
2017-11-23T01:32:56.803Z,92.00
2017-11-23T01:35:24.441Z,92.00
2017-11-23T01:37:52.121Z,92.00
2017-11-23T01:40:19.730Z,92.10
2017-11-23T01:42:47.454Z,92.20
2017-11-23T01:45:15.092Z,92.00
2017-11-23T01:47:42.716Z,91.90
2017-11-23T01:50:10.352Z,91.90
2017-11-23T01:52:37.926Z,91.90
2017-11-23T01:55:06.243Z,91.80
2017-11-23T01:57:34.658Z,91.40
2017-11-23T02:00:02.307Z,91.40
2017-11-23T02:02:29.946Z,91.50
2017-11-23T02:04:57.566Z,91.50
2017-11-23T02:07:25.208Z,91.50
2017-11-23T02:09:52.824Z,91.50
2017-11-23T02:12:20.443Z,91.40
2017-11-23T02:14:48.103Z,91.30
2017-11-23T02:17:15.752Z,91.30
2017-11-23T02:19:43.418Z,91.50
2017-11-23T02:22:11.268Z,91.40
2017-11-23T02:24:38.915Z,91.40
2017-11-23T02:27:06.521Z,91.50
2017-11-23T02:29:34.201Z,91.30
2017-11-23T02:32:01.858Z,91.60
2017-11-23T02:34:30.255Z,90.90
2017-11-23T02:36:58.595Z,90.90
2017-11-23T02:39:26.221Z,90.80
2017-11-23T02:41:53.896Z,90.80
2017-11-23T02:44:21.533Z,90.80
2017-11-23T02:46:49.897Z,90.60
2017-11-23T02:49:17.509Z,90.60
2017-11-23T02:51:45.124Z,90.60
2017-11-23T02:54:12.754Z,90.60
2017-11-23T02:56:40.396Z,90.00
2017-11-23T02:59:07.973Z,89.80
2017-11-23T03:01:35.612Z,89.80
2017-11-23T03:04:03.309Z,90.00
2017-11-23T03:06:30.963Z,90.00
2017-11-23T03:08:58.566Z,90.10
2017-11-23T03:11:27.314Z,90.10
2017-11-23T03:13:54.895Z,90.00
2017-11-23T03:16:23.571Z,90.00
2017-11-23T03:18:51.233Z,90.20
2017-11-23T03:21:18.862Z,90.20
2017-11-23T03:23:46.513Z,90.30
2017-11-23T03:26:14.105Z,90.30
2017-11-23T03:28:41.743Z,90.30
2017-11-23T03:31:11.778Z,90.40
2017-11-23T03:33:39.422Z,90.30
2017-11-23T03:36:07.496Z,90.30
2017-11-23T03:38:35.049Z,90.20
2017-11-23T03:41:02.670Z,90.00
2017-11-23T03:43:30.275Z,90.00
2017-11-23T03:45:57.936Z,90.00
2017-11-23T03:48:26.038Z,89.60
2017-11-23T03:50:53.714Z,89.70
2017-11-23T03:53:21.389Z,90.20
2017-11-23T03:55:49.014Z,89.30
2017-11-23T03:58:16.600Z,89.40
2017-11-23T04:00:44.278Z,89.10
2017-11-23T04:03:11.986Z,89.00
2017-11-23T04:05:39.692Z,88.80
2017-11-23T04:08:07.374Z,89.10
2017-11-23T04:10:35.772Z,88.80
2017-11-23T04:13:03.418Z,88.80
2017-11-23T04:15:31.838Z,88.70
2017-11-23T04:17:59.493Z,88.60
2017-11-23T04:20:27.054Z,88.60
2017-11-23T04:22:54.670Z,88.70
2017-11-23T04:25:23.049Z,89.10
2017-11-23T04:27:51.465Z,90.00
2017-11-23T04:30:19.953Z,89.10
2017-11-23T04:32:47.581Z,89.20
2017-11-23T04:35:15.998Z,89.10
2017-11-23T04:37:43.992Z,89.10
2017-11-23T04:40:11.604Z,89.00
2017-11-23T04:42:39.966Z,89.30
2017-11-23T04:45:08.343Z,89.20
2017-11-23T04:47:36.023Z,89.20
2017-11-23T04:50:04.382Z,89.20
2017-11-23T04:52:32.400Z,89.20
2017-11-23T04:54:59.984Z,89.20
2017-11-23T04:57:28.541Z,89.20
2017-11-23T04:59:56.120Z,89.60
2017-11-23T05:02:23.765Z,89.70
2017-11-23T05:04:51.315Z,89.30
2017-11-23T05:07:18.899Z,89.30
2017-11-23T05:09:46.611Z,89.10
2017-11-23T05:12:15.021Z,89.20
2017-11-23T05:14:42.662Z,89.20
2017-11-23T05:17:10.853Z,89.10
2017-11-23T05:19:38.510Z,89.20
2017-11-23T05:22:06.892Z,89.30
2017-11-23T05:24:34.541Z,89.30
2017-11-23T05:27:02.124Z,89.20
2017-11-23T05:29:29.719Z,90.00
2017-11-23T05:31:57.367Z,89.50
2017-11-23T05:34:24.978Z,89.20
2017-11-23T05:36:53.391Z,89.50
2017-11-23T05:39:20.973Z,89.40
2017-11-23T05:41:48.633Z,89.50
2017-11-23T05:44:17.138Z,89.50
2017-11-23T05:46:45.505Z,89.80
2017-11-23T05:49:13.950Z,89.70
2017-11-23T05:51:41.628Z,89.80
2017-11-23T05:54:09.257Z,89.50
2017-11-23T05:56:36.946Z,89.50
2017-11-23T05:59:04.590Z,89.20
2017-11-23T06:01:32.266Z,89.40
2017-11-23T06:04:00.052Z,89.30
2017-11-23T06:06:27.728Z,89.20
2017-11-23T06:08:55.361Z,89.20
2017-11-23T06:11:23.095Z,89.00
2017-11-23T06:13:50.691Z,89.10
2017-11-23T06:16:19.105Z,88.90
2017-11-23T06:18:46.752Z,88.90
2017-11-23T06:21:15.105Z,88.90
2017-11-23T06:23:42.765Z,88.80
2017-11-23T06:26:10.370Z,88.70
2017-11-23T06:28:37.983Z,88.80
2017-11-23T06:31:06.352Z,88.50
2017-11-23T06:33:34.734Z,88.40
2017-11-23T06:36:02.431Z,88.40
2017-11-23T06:38:30.161Z,87.90
2017-11-23T06:40:57.891Z,87.70
2017-11-23T06:43:25.515Z,87.70
2017-11-23T06:45:53.111Z,88.80
2017-11-23T06:48:20.735Z,87.90
2017-11-23T06:50:48.416Z,87.70
2017-11-23T06:53:15.994Z,87.80
2017-11-23T06:55:43.681Z,87.60
2017-11-23T06:58:11.966Z,87.30
2017-11-23T07:00:39.647Z,87.20
2017-11-23T07:03:07.342Z,87.20
2017-11-23T07:05:34.926Z,87.40
2017-11-23T07:08:02.573Z,87.60
2017-11-23T07:10:30.176Z,87.60
2017-11-23T07:12:57.807Z,87.40
2017-11-23T07:15:29.456Z,87.40
2017-11-23T07:18:00.704Z,87.60
2017-11-23T07:20:28.336Z,87.60
2017-11-23T07:22:55.967Z,87.20
2017-11-23T07:25:23.633Z,87.50
2017-11-23T07:27:51.361Z,87.30
2017-11-23T07:30:18.970Z,87.00
2017-11-23T07:32:46.571Z,86.70
2017-11-23T07:35:14.210Z,86.50
2017-11-23T07:37:41.844Z,86.90
2017-11-23T07:40:09.455Z,87.50
2017-11-23T07:42:37.093Z,87.40
2017-11-23T07:45:04.714Z,87.60
2017-11-23T07:47:33.073Z,87.70
2017-11-23T07:50:00.875Z,87.80
2017-11-23T07:52:28.556Z,87.80
2017-11-23T07:54:56.190Z,87.70
2017-11-23T07:57:23.813Z,87.90
2017-11-23T07:59:51.511Z,88.00
2017-11-23T08:02:19.326Z,88.30
2017-11-23T08:04:46.951Z,88.30
2017-11-23T08:07:14.529Z,88.40
2017-11-23T08:09:42.192Z,88.60
2017-11-23T08:12:09.779Z,88.60
2017-11-23T08:14:38.196Z,88.30
2017-11-23T08:17:05.968Z,88.20
2017-11-23T08:19:33.623Z,88.20
2017-11-23T08:22:02.003Z,88.70
2017-11-23T08:24:29.673Z,87.90
2017-11-23T08:26:57.289Z,87.70
2017-11-23T08:29:24.945Z,87.20
2017-11-23T08:31:52.591Z,87.60
2017-11-23T08:34:20.208Z,87.10
2017-11-23T08:36:48.559Z,86.60
2017-11-23T08:39:16.166Z,86.60
2017-11-23T08:41:43.782Z,86.40
2017-11-23T08:44:11.411Z,86.40
2017-11-23T08:46:39.043Z,86.10
2017-11-23T08:49:06.628Z,86.20
2017-11-23T08:51:34.299Z,86.20
2017-11-23T08:54:01.880Z,86.40
2017-11-23T08:56:29.437Z,86.10
2017-11-23T08:58:57.005Z,86.30
2017-11-23T09:01:31.190Z,86.10
2017-11-23T09:03:58.792Z,86.00
2017-11-23T09:06:27.291Z,85.60
2017-11-23T09:08:54.892Z,85.50
2017-11-23T09:11:22.481Z,85.50
2017-11-23T09:13:50.040Z,84.90
2017-11-23T09:16:17.622Z,84.80
2017-11-23T09:18:45.212Z,84.60
2017-11-23T09:21:12.796Z,84.90
2017-11-23T09:23:40.420Z,84.80
2017-11-23T09:26:08.077Z,84.60
2017-11-23T09:28:35.678Z,84.60
2017-11-23T09:31:03.255Z,84.70
2017-11-23T09:33:30.874Z,85.60
2017-11-23T09:35:58.533Z,85.20
2017-11-23T09:38:26.196Z,85.20
2017-11-23T09:40:53.830Z,85.40
2017-11-23T09:43:22.230Z,85.80
2017-11-23T09:45:49.925Z,85.80
2017-11-23T09:48:18.327Z,86.60
2017-11-23T09:50:45.978Z,86.60
2017-11-23T09:53:13.590Z,86.70
2017-11-23T09:55:41.225Z,86.80
2017-11-23T09:58:09.620Z,87.10
2017-11-23T10:00:38.033Z,87.30
2017-11-23T10:03:05.674Z,87.10
2017-11-23T10:05:33.283Z,87.30
2017-11-23T10:08:00.878Z,87.50
2017-11-23T10:10:29.256Z,87.80
2017-11-23T10:12:57.639Z,87.60
2017-11-23T10:15:25.304Z,87.60
2017-11-23T10:17:53.773Z,87.90
2017-11-23T10:20:22.129Z,88.20
2017-11-23T10:22:49.701Z,88.10
2017-11-23T10:25:18.100Z,88.70
2017-11-23T10:27:46.486Z,87.90
2017-11-23T10:30:14.817Z,88.40
2017-11-23T10:32:42.415Z,88.40
2017-11-23T10:35:10.898Z,88.30
2017-11-23T10:37:44.185Z,88.40
2017-11-23T10:40:12.605Z,88.80
2017-11-23T10:42:40.196Z,88.70
2017-11-23T10:45:07.798Z,88.90
2017-11-23T10:47:35.370Z,89.10
2017-11-23T10:50:02.935Z,89.10
2017-11-23T10:52:30.520Z,90.00
2017-11-23T10:54:58.126Z,90.00
2017-11-23T10:57:26.505Z,90.40
2017-11-23T10:59:54.129Z,90.40
2017-11-23T11:02:21.795Z,90.20
2017-11-23T11:04:49.448Z,90.30
2017-11-23T11:07:17.111Z,90.40
2017-11-23T11:09:44.753Z,90.60
2017-11-23T11:12:12.356Z,91.10
2017-11-23T11:14:39.943Z,91.50
2017-11-23T11:17:08.286Z,94.00
2017-11-23T11:19:35.930Z,93.60
2017-11-23T11:22:03.561Z,94.80
2017-11-23T11:24:31.154Z,95.00
2017-11-23T11:26:58.765Z,95.60
2017-11-23T11:29:26.375Z,95.90
2017-11-23T11:31:53.966Z,96.70
2017-11-23T11:34:21.573Z,96.90
2017-11-23T11:36:49.253Z,97.60
2017-11-23T11:39:16.967Z,97.90
2017-11-23T11:41:45.336Z,98.30
2017-11-23T11:44:13.056Z,98.30
2017-11-23T11:46:40.653Z,98.80
2017-11-23T11:49:08.254Z,98.60
2017-11-23T11:51:35.854Z,98.60
2017-11-23T11:54:03.447Z,98.80
2017-11-23T11:56:31.055Z,98.60
2017-11-23T11:58:58.671Z,98.70
2017-11-23T12:01:26.382Z,98.70
2017-11-23T12:03:54.002Z,99.00
2017-11-23T12:06:22.412Z,98.40
2017-11-23T12:08:50.020Z,98.40
2017-11-23T12:11:18.106Z,98.30
2017-11-23T12:13:58.303Z,98.20
2017-11-23T12:19:40.353Z,97.80
2017-11-23T12:22:19.942Z,97.80
2017-11-23T12:24:59.466Z,97.00
2017-11-23T12:27:27.806Z,96.00
2017-11-23T12:30:04.369Z,96.00
2017-11-23T12:32:31.953Z,95.60
2017-11-23T12:34:59.555Z,95.80
2017-11-23T12:37:27.116Z,95.40
2017-11-23T12:39:54.761Z,94.90
2017-11-23T12:42:22.314Z,95.10
2017-11-23T12:44:49.904Z,95.20
2017-11-23T12:47:17.502Z,95.20
2017-11-23T12:49:45.060Z,95.20
2017-11-23T12:52:12.649Z,95.00
2017-11-23T12:54:40.245Z,95.00
2017-11-23T12:57:07.855Z,95.00
2017-11-23T12:59:35.447Z,94.70
2017-11-23T13:02:03.105Z,94.80
2017-11-23T13:04:30.752Z,94.70
2017-11-23T13:06:59.091Z,94.80
2017-11-23T13:09:26.735Z,94.80
2017-11-23T13:11:54.354Z,95.00
2017-11-23T13:14:21.956Z,95.20
2017-11-23T13:16:49.530Z,95.40
2017-11-23T13:19:17.118Z,95.10
2017-11-23T13:21:45.489Z,94.90
2017-11-23T13:24:13.149Z,94.90
2017-11-23T13:26:40.746Z,94.80
2017-11-23T13:29:08.429Z,94.90
2017-11-23T13:31:36.005Z,95.10
2017-11-23T13:34:04.819Z,94.90
2017-11-23T13:36:32.387Z,94.90
2017-11-23T13:39:00.752Z,95.60
2017-11-23T13:41:28.966Z,95.20
2017-11-23T13:43:56.564Z,95.30
2017-11-23T13:46:24.159Z,95.20
2017-11-23T13:48:51.760Z,95.20
2017-11-23T13:51:19.344Z,95.20
2017-11-23T13:53:46.952Z,95.20
2017-11-23T13:56:14.573Z,95.20
2017-11-23T13:58:42.172Z,95.20
2017-11-23T14:01:09.828Z,95.40
2017-11-23T14:03:37.455Z,95.40
2017-11-23T14:06:05.085Z,95.50
2017-11-23T14:08:32.671Z,95.50
2017-11-23T14:11:00.281Z,95.70
2017-11-23T14:13:28.621Z,95.70
2017-11-23T14:15:56.275Z,95.70
2017-11-23T14:18:23.838Z,95.40
2017-11-23T14:20:51.426Z,95.40
2017-11-23T14:23:19.012Z,95.30
2017-11-23T14:25:46.619Z,95.40
2017-11-23T14:28:14.292Z,95.30
2017-11-23T14:30:41.940Z,95.30
2017-11-23T14:33:09.634Z,95.20
2017-11-23T14:35:38.004Z,95.20
2017-11-23T14:38:05.549Z,94.90
2017-11-23T14:40:33.178Z,95.00
2017-11-23T14:43:00.797Z,94.80
2017-11-23T14:45:29.168Z,94.80
2017-11-23T14:47:56.756Z,94.70
2017-11-23T14:50:24.363Z,94.70
2017-11-23T14:52:51.977Z,94.60
2017-11-23T14:55:19.622Z,94.60
2017-11-23T14:57:47.238Z,94.60
2017-11-23T15:00:14.909Z,94.30
2017-11-23T15:02:42.553Z,94.40
2017-11-23T15:05:10.240Z,94.50
2017-11-23T15:07:37.863Z,94.50
2017-11-23T15:10:05.441Z,94.40
2017-11-23T15:12:33.101Z,94.30
2017-11-23T15:15:00.740Z,94.40
2017-11-23T15:17:28.378Z,94.30
2017-11-23T15:19:55.985Z,94.30
2017-11-23T15:22:23.635Z,94.30
2017-11-23T15:24:51.253Z,94.40
2017-11-23T15:27:18.836Z,94.80
2017-11-23T15:29:46.512Z,94.90
2017-11-23T15:32:14.906Z,95.70
2017-11-23T15:34:42.539Z,95.80
2017-11-23T15:37:10.122Z,96.60
2017-11-23T15:39:37.698Z,98.10
2017-11-23T15:42:06.109Z,99.90
2017-11-23T15:44:34.409Z,99.90
2017-11-23T15:47:02.002Z,99.90
2017-11-23T15:49:29.599Z,99.90
2017-11-23T15:51:57.980Z,99.90
2017-11-23T15:54:25.574Z,99.90
2017-11-23T15:56:53.167Z,99.90
2017-11-23T15:59:21.540Z,99.90
2017-11-23T16:01:49.126Z,99.90
2017-11-23T16:04:17.480Z,99.90
2017-11-23T16:06:45.104Z,99.90
2017-11-23T16:09:12.729Z,99.90
2017-11-23T16:11:40.464Z,99.90
2017-11-23T16:14:08.095Z,99.90
2017-11-23T16:16:35.753Z,99.90
2017-11-23T16:19:04.246Z,99.90
2017-11-23T16:21:31.926Z,99.90
2017-11-23T16:23:59.593Z,99.90
2017-11-23T16:26:27.455Z,99.90
2017-11-23T16:28:55.180Z,99.90
2017-11-23T16:31:22.967Z,99.90
2017-11-23T16:33:51.368Z,99.90
2017-11-23T16:36:20.914Z,99.90
2017-11-23T16:38:53.915Z,99.90
2017-11-23T16:41:22.163Z,99.90
2017-11-23T16:43:56.114Z,99.90
2017-11-23T16:46:29.468Z,99.90
2017-11-23T16:49:01.444Z,99.90
2017-11-23T16:51:34.780Z,99.90
2017-11-23T16:54:07.989Z,99.90
2017-11-23T16:56:41.389Z,99.90
2017-11-23T17:02:18.404Z,99.90
2017-11-23T17:04:52.813Z,99.90
2017-11-23T17:20:45.290Z,99.90
2017-11-23T17:23:12.937Z,99.90
2017-11-23T17:25:40.546Z,99.90
2017-11-23T17:28:08.201Z,99.90
2017-11-23T17:30:35.816Z,99.90
2017-11-23T17:33:03.507Z,99.90
2017-11-23T17:35:31.089Z,99.90
2017-11-23T17:37:58.741Z,99.90
2017-11-23T17:40:26.370Z,99.90
2017-11-23T17:42:54.763Z,99.90
2017-11-23T17:45:22.598Z,99.90
2017-11-23T17:47:50.162Z,99.90
2017-11-23T17:50:19.184Z,99.90
2017-11-23T17:52:46.908Z,99.90
2017-11-23T17:55:14.562Z,99.90
2017-11-23T17:57:42.271Z,99.90
2017-11-23T18:00:09.957Z,99.90
2017-11-23T18:02:37.580Z,99.90
2017-11-23T18:05:06.187Z,99.90
2017-11-23T18:07:34.045Z,99.90
2017-11-23T18:10:01.984Z,99.90
2017-11-23T18:12:30.574Z,99.90
2017-11-23T18:14:58.207Z,99.90
2017-11-23T18:17:25.910Z,99.90
2017-11-23T18:19:53.588Z,99.90
2017-11-23T18:22:21.209Z,99.90
2017-11-23T18:24:48.816Z,99.90
2017-11-23T18:27:16.450Z,99.90
2017-11-23T18:29:44.110Z,99.90
2017-11-23T18:32:14.114Z,99.90
2017-11-23T18:34:41.669Z,99.90
2017-11-23T18:37:09.419Z,99.90
2017-11-23T18:39:37.029Z,99.90
2017-11-23T18:42:05.558Z,99.90
2017-11-23T18:44:33.163Z,99.90
2017-11-23T18:47:00.824Z,99.90
2017-11-23T18:49:28.497Z,99.90
2017-11-23T18:51:56.076Z,99.90
2017-11-23T18:54:23.851Z,99.90
2017-11-23T18:56:51.473Z,99.90
2017-11-23T18:59:19.124Z,99.90
2017-11-23T19:01:46.805Z,99.90
2017-11-23T19:04:14.476Z,99.90
2017-11-23T19:06:42.043Z,99.90
2017-11-23T19:09:09.699Z,99.90
2017-11-23T19:11:37.832Z,99.90
2017-11-23T19:14:05.467Z,99.90
2017-11-23T19:16:33.089Z,99.90
2017-11-23T19:19:00.716Z,99.90
2017-11-23T19:21:29.991Z,99.90
2017-11-23T19:23:57.609Z,99.90
2017-11-23T19:26:25.214Z,99.90
2017-11-23T19:28:52.833Z,99.90
2017-11-23T19:31:20.493Z,99.90
2017-11-23T19:33:48.140Z,99.90
2017-11-23T19:36:15.749Z,99.90
2017-11-23T19:38:43.388Z,99.90
2017-11-23T19:41:10.942Z,99.90
2017-11-23T19:43:39.320Z,99.90
2017-11-23T19:46:08.067Z,99.90
2017-11-23T19:48:35.682Z,99.90
2017-11-23T19:51:04.069Z,99.90
2017-11-23T19:53:32.416Z,99.90
2017-11-23T19:58:33.780Z,99.90
2017-11-23T20:01:01.402Z,99.90
2017-11-23T20:03:28.967Z,99.90
2017-11-23T20:05:56.702Z,99.90
2017-11-23T20:08:24.447Z,99.90
2017-11-23T20:10:52.830Z,99.40
2017-11-23T20:13:20.492Z,99.40
2017-11-23T20:15:48.902Z,98.20
2017-11-23T20:18:16.591Z,98.20
2017-11-23T20:20:44.220Z,98.20
2017-11-23T20:23:11.880Z,97.60
2017-11-23T20:25:39.520Z,97.20
2017-11-23T20:28:07.148Z,96.90
2017-11-23T20:30:34.741Z,96.40
2017-11-23T20:33:03.149Z,95.90
2017-11-23T20:35:30.810Z,95.90
2017-11-23T20:37:58.434Z,96.00
2017-11-23T20:40:26.011Z,95.70
2017-11-23T20:42:54.334Z,95.50
2017-11-23T20:45:22.053Z,95.40
2017-11-23T20:47:50.375Z,95.10
2017-11-23T20:50:18.080Z,95.10
2017-11-23T20:52:46.462Z,95.20
2017-11-23T20:55:15.245Z,95.10
2017-11-23T20:57:44.647Z,95.50
2017-11-23T21:00:13.080Z,95.40
2017-11-23T21:02:40.723Z,95.40
2017-11-23T21:05:08.310Z,96.20
2017-11-23T21:07:35.943Z,96.30
2017-11-23T21:10:03.547Z,96.30
2017-11-23T21:12:31.193Z,96.80
2017-11-23T21:14:58.747Z,96.80
2017-11-23T21:17:26.392Z,97.20
2017-11-23T21:19:54.008Z,97.30
2017-11-23T21:22:21.674Z,97.40
2017-11-23T21:24:50.064Z,97.70
2017-11-23T21:27:18.418Z,98.00
2017-11-23T21:29:46.023Z,98.00
2017-11-23T21:32:13.662Z,98.40
2017-11-23T21:34:41.302Z,98.80
2017-11-23T21:37:08.882Z,99.20
2017-11-23T21:39:37.296Z,99.80
2017-11-23T21:42:04.889Z,99.80
2017-11-23T21:44:32.552Z,99.90
2017-11-23T21:47:00.165Z,99.90
2017-11-23T21:49:27.750Z,99.90
2017-11-23T21:51:55.344Z,99.90
2017-11-23T21:54:22.922Z,99.90
2017-11-23T21:56:51.292Z,99.90
2017-11-23T21:59:19.640Z,99.90
2017-11-23T22:01:47.233Z,99.90
2017-11-23T22:04:15.648Z,99.90
2017-11-23T22:06:43.227Z,99.90
2017-11-23T22:09:10.854Z,99.90
2017-11-23T22:11:38.536Z,99.90
2017-11-23T22:14:06.880Z,99.90
2017-11-23T22:16:35.279Z,99.80
2017-11-23T22:19:02.838Z,99.80
2017-11-23T22:21:31.263Z,99.70
2017-11-23T22:23:58.980Z,99.70
2017-11-23T22:26:26.601Z,99.70
2017-11-23T22:28:54.165Z,99.60
2017-11-23T22:31:21.785Z,99.50
2017-11-23T22:33:49.381Z,99.20
2017-11-23T22:36:16.931Z,99.30
2017-11-23T22:38:44.502Z,99.40
2017-11-23T22:41:12.165Z,99.30
2017-11-23T22:43:39.788Z,99.20
2017-11-23T22:46:07.420Z,99.10
2017-11-23T22:48:35.799Z,98.80
2017-11-23T22:51:04.144Z,98.80
2017-11-23T22:53:31.764Z,98.80
2017-11-23T22:55:59.411Z,98.80
2017-11-23T22:58:27.001Z,98.90
2017-11-23T23:00:54.685Z,98.70
2017-11-23T23:03:22.314Z,98.60
2017-11-23T23:05:49.980Z,98.50
2017-11-23T23:08:18.364Z,98.50
2017-11-23T23:10:45.936Z,98.50
2017-11-23T23:13:13.522Z,98.60
2017-11-23T23:15:41.127Z,98.50
2017-11-23T23:18:08.723Z,98.60
2017-11-23T23:20:36.326Z,98.50
2017-11-23T23:23:03.936Z,98.50
2017-11-23T23:25:31.503Z,98.40
2017-11-23T23:27:59.129Z,98.40
2017-11-23T23:30:26.715Z,98.30
2017-11-23T23:32:54.317Z,98.30
2017-11-23T23:35:21.879Z,98.20
2017-11-23T23:37:49.466Z,98.20
2017-11-23T23:40:17.127Z,98.30
2017-11-23T23:42:44.750Z,98.20
2017-11-23T23:45:12.390Z,98.20
2017-11-23T23:47:39.969Z,98.30
2017-11-23T23:50:07.572Z,98.50
2017-11-23T23:52:35.228Z,98.50
2017-11-23T23:55:02.816Z,98.40
2017-11-23T23:57:30.484Z,98.50
2017-11-23T23:59:58.086Z,98.70
